Time;durP1;ratioP1;P1;durP2;ratioP2;P2;SDS_P1;SDS_P2;PMS_P1;PMS_P2;Temp;Humidity;BMP_temperature;BMP_pressure;BME280_temperature;BME280_humidity;BME280_pressure;Samples;Min_cycle;Max_cycle;Signal;HPM_P1;HPM_P2
2022/01/19 00:00:22;;;;;;;8.25;6.83;;;;;;;-0.18;51.99;95579.80;1660383;85;21136;-47
2022/01/19 00:02:49;;;;;;;14.10;7.53;;;;;;;-0.11;51.93;95574.52;1663946;84;21156;-47
2022/01/19 00:05:15;;;;;;;12.85;8.65;;;;;;;-0.05;52.08;95581.77;1649985;85;21002;-48
2022/01/19 00:07:42;;;;;;;13.85;9.85;;;;;;;-0.04;52.36;95587.39;1661790;86;20970;-52
2022/01/19 00:10:11;;;;;;;16.30;9.93;;;;;;;-0.07;52.51;95591.58;1654147;86;20969;-48
2022/01/19 00:12:42;;;;;;;13.08;9.03;;;;;;;-0.12;52.24;95590.53;1638699;85;21158;-46
2022/01/19 00:15:09;;;;;;;10.25;7.25;;;;;;;-0.06;52.09;95588.31;1656927;86;21104;-47
2022/01/19 00:17:38;;;;;;;8.13;6.37;;;;;;;-0.01;51.36;95599.59;1658119;86;21056;-47
2022/01/19 00:20:07;;;;;;;6.40;5.80;;;;;;;-0.10;51.67;95607.17;1655380;86;20969;-47
2022/01/19 00:22:33;;;;;;;10.32;8.43;;;;;;;-0.21;51.71;95603.48;1658833;86;21022;-48
2022/01/19 00:25:00;;;;;;;9.55;7.10;;;;;;;-0.21;51.73;95600.00;1658012;86;21078;-48
2022/01/19 00:27:27;;;;;;;15.32;10.75;;;;;;;-0.15;51.68;95601.27;1666272;84;21064;-47
2022/01/19 00:29:55;;;;;;;13.18;9.73;;;;;;;-0.08;51.79;95611.65;1656173;86;21013;-47
2022/01/19 00:32:24;;;;;;;7.60;6.67;;;;;;;-0.08;51.56;95604.13;1637078;85;20996;-46
2022/01/19 00:34:51;;;;;;;10.23;7.70;;;;;;;-0.16;51.56;95600.50;1658445;85;21647;-47
2022/01/19 00:37:18;;;;;;;10.35;7.37;;;;;;;-0.22;51.78;95599.80;1658448;85;21228;-48
2022/01/19 00:39:44;;;;;;;8.90;7.65;;;;;;;-0.23;52.02;95592.83;1665569;85;20976;-46
2022/01/19 00:42:14;;;;;;;11.50;8.13;;;;;;;-0.31;52.03;95593.27;1666699;85;20977;-46
2022/01/19 00:44:41;;;;;;;25.27;14.23;;;;;;;-0.34;52.31;95598.03;1657442;86;21057;-46
2022/01/19 00:47:08;;;;;;;35.63;17.40;;;;;;;-0.31;52.47;95599.22;1659016;85;21104;-48
2022/01/19 00:49:35;;;;;;;32.38;16.35;;;;;;;-0.25;52.51;95602.63;1659100;85;21158;-47
2022/01/19 00:52:03;;;;;;;37.65;22.85;;;;;;;-0.19;52.62;95595.02;1660498;85;20977;-48
2022/01/19 00:54:30;;;;;;;50.80;38.35;;;;;;;-0.10;52.65;95596.91;1635118;86;21043;-48
2022/01/19 00:56:56;;;;;;;59.83;33.00;;;;;;;-0.02;52.45;95601.53;1656365;85;21445;-47
2022/01/19 00:59:23;;;;;;;43.42;26.82;;;;;;;0.12;52.16;95607.20;1657045;86;21001;-48
2022/01/19 01:01:50;;;;;;;21.73;15.15;;;;;;;0.24;51.92;95612.42;1660190;85;21173;-48
2022/01/19 01:04:17;;;;;;;28.38;18.07;;;;;;;0.27;51.72;95607.67;1661158;85;21039;-47
2022/01/19 01:06:43;;;;;;;22.90;13.25;;;;;;;0.29;51.92;95614.84;1659017;86;21222;-46
2022/01/19 01:09:13;;;;;;;18.48;11.22;;;;;;;0.27;52.00;95617.70;1654062;86;21120;-47
2022/01/19 01:11:48;;;;;;;12.18;8.40;;;;;;;0.27;51.87;95604.97;1656842;85;21091;-47
2022/01/19 01:17:12;;;;;;;15.15;10.25;;;;;;;-0.01;51.91;95596.34;1669898;85;21005;-48
2022/01/19 01:19:30;;;;;;;14.65;8.98;;;;;;;-0.02;51.95;95590.72;1653615;85;21016;-47
2022/01/19 01:22:03;;;;;;;15.18;10.85;;;;;;;-0.09;51.81;95594.42;1660479;85;21124;-47
2022/01/19 01:24:33;;;;;;;11.95;8.90;;;;;;;-0.17;51.77;95583.27;1661733;85;21072;-47
2022/01/19 01:27:03;;;;;;;13.98;9.33;;;;;;;-0.29;51.91;95583.42;1660543;85;21188;-48
2022/01/19 01:29:30;;;;;;;15.13;11.03;;;;;;;-0.33;51.87;95592.04;1643996;86;20989;-47
2022/01/19 01:31:56;;;;;;;12.60;8.85;;;;;;;-0.25;51.76;95586.41;1657548;86;21028;-47
2022/01/19 01:34:24;;;;;;;18.50;10.13;;;;;;;-0.10;51.59;95584.74;1662373;85;21028;-47
2022/01/19 01:36:54;;;;;;;13.70;9.68;;;;;;;-0.06;51.56;95595.08;1655008;86;23122;-47
2022/01/19 01:39:21;;;;;;;24.60;11.70;;;;;;;-0.08;51.66;95593.30;1655109;85;21120;-48
2022/01/19 01:41:48;;;;;;;29.77;13.20;;;;;;;-0.17;51.73;95596.80;1654263;86;21025;-47
2022/01/19 01:44:16;;;;;;;24.32;12.13;;;;;;;-0.27;51.91;95606.82;1659669;85;21449;-47
2022/01/19 01:46:50;;;;;;;28.87;13.68;;;;;;;-0.38;52.17;95596.39;1654913;86;21061;-46
2022/01/19 01:49:27;;;;;;;36.55;17.48;;;;;;;-0.50;52.58;95591.12;1654692;85;21052;-46
2022/01/19 01:54:32;;;;;;;26.70;12.90;;;;;;;-0.59;52.86;95593.27;1654035;86;20966;-47
2022/01/19 01:57:05;;;;;;;57.75;27.95;;;;;;;-0.67;52.95;95592.34;1657557;85;21556;-46
2022/01/19 01:59:34;;;;;;;54.25;30.05;;;;;;;-0.77;53.22;95586.73;1655532;86;20981;-48
2022/01/19 02:02:20;;;;;;;45.20;22.10;;;;;;;-0.74;53.37;95590.83;1639368;86;21017;-47
2022/01/19 02:04:49;;;;;;;48.52;22.02;;;;;;;-0.75;53.59;95605.48;1637939;86;21812;-47
2022/01/19 02:09:59;;;;;;;33.38;14.98;;;;;;;-0.90;53.77;95601.48;1653547;86;21077;-47
2022/01/19 02:23:46;;;;;;;64.97;24.10;;;;;;;-0.91;54.26;95602.63;1654615;86;21468;-48
2022/01/19 02:26:15;;;;;;;30.17;12.85;;;;;;;-0.88;54.29;95597.86;1652505;86;21500;-48
2022/01/19 02:29:25;;;;;;;62.48;24.92;;;;;;;-0.99;54.85;95596.88;1658289;86;21060;-47
2022/01/19 02:36:52;;;;;;;45.55;21.20;;;;;;;-1.40;56.32;95598.81;1653183;86;21222;-47
2022/01/19 02:41:52;;;;;;;36.30;18.27;;;;;;;-1.57;56.83;95591.08;1656335;86;20965;-47
2022/01/19 02:44:37;;;;;;;33.58;17.32;;;;;;;-1.65;56.68;95585.31;1658171;86;21163;-47
2022/01/19 02:49:40;;;;;;;60.43;29.23;;;;;;;-1.82;56.23;95582.17;1653358;86;20997;-47
2022/01/19 02:52:07;;;;;;;32.53;16.85;;;;;;;-1.79;56.18;95581.50;1637022;86;21079;-47
2022/01/19 02:54:34;;;;;;;37.17;18.50;;;;;;;-1.72;55.93;95574.37;1661887;85;20980;-46
2022/01/19 02:57:03;;;;;;;32.95;17.87;;;;;;;-1.67;55.84;95572.75;1658122;85;21194;-47
2022/01/19 02:59:50;;;;;;;25.37;14.53;;;;;;;-1.56;55.55;95574.56;1653919;86;21081;-48
2022/01/19 03:10:18;;;;;;;21.93;14.73;;;;;;;-1.14;54.60;95550.45;1629346;85;21145;-47
2022/01/19 03:12:51;;;;;;;15.65;11.55;;;;;;;-1.04;54.25;95554.73;1664598;85;20980;-47
2022/01/19 03:15:18;;;;;;;12.70;8.63;;;;;;;-0.97;54.05;95552.75;1659632;85;21525;-47
2022/01/19 03:17:45;;;;;;;9.65;8.33;;;;;;;-1.08;53.76;95553.88;1658154;85;21001;-48
2022/01/19 03:20:13;;;;;;;25.40;13.40;;;;;;;-1.32;54.00;95550.05;1656803;86;21576;-48
2022/01/19 03:23:02;;;;;;;30.27;17.92;;;;;;;-1.59;54.55;95562.33;1633080;86;22374;-48
2022/01/19 03:25:14;;;;;;;48.00;26.05;;;;;;;-1.76;55.09;95561.34;1655353;85;20985;-48
2022/01/19 03:27:45;;;;;;;49.77;24.05;;;;;;;-1.85;55.44;95567.50;1663665;84;20981;-47
2022/01/19 03:30:14;;;;;;;35.30;19.00;;;;;;;-1.80;55.72;95575.31;1656005;85;21034;-47
2022/01/19 03:32:42;;;;;;;;;;;;;;;-1.77;55.78;95574.61;1658537;86;21430;-47
2022/01/19 03:35:12;;;;;;;24.92;14.30;;;;;;;-1.80;55.92;95581.28;1655683;86;21162;-47
2022/01/19 03:37:39;;;;;;;30.65;16.37;;;;;;;-1.87;56.05;95583.79;1656329;86;21103;-46
2022/01/19 03:40:08;;;;;;;40.08;18.05;;;;;;;-1.88;56.30;95578.98;1660562;86;21015;-47
2022/01/19 03:42:35;;;;;;;40.25;21.57;;;;;;;-1.94;56.44;95575.55;1656777;86;21101;-47
2022/01/19 03:45:04;;;;;;;72.00;31.48;;;;;;;-1.98;56.70;95576.80;1659834;86;21453;-48
2022/01/19 03:47:38;;;;;;;25.05;14.60;;;;;;;-1.92;56.82;95582.13;1660961;86;21497;-47
2022/01/19 03:50:00;;;;;;;32.42;15.83;;;;;;;-1.86;56.67;95576.72;1636694;85;21068;-47
2022/01/19 03:52:27;;;;;;;121.90;54.23;;;;;;;-1.90;56.79;95570.46;1655086;86;21067;-47
2022/01/19 03:54:54;;;;;;;76.30;36.85;;;;;;;-1.94;56.93;95566.88;1655842;86;21022;-47
2022/01/19 03:57:21;;;;;;;87.45;39.23;;;;;;;-1.87;57.03;95564.37;1657025;86;21136;-47
2022/01/19 03:59:48;;;;;;;74.12;34.18;;;;;;;-1.79;56.90;95562.05;1628241;86;21833;-47
2022/01/19 04:02:15;;;;;;;48.95;25.08;;;;;;;-1.69;56.79;95556.14;1657373;85;20985;-48
2022/01/19 04:04:52;;;;;;;42.62;22.48;;;;;;;-1.57;56.62;95554.66;1659801;85;21456;-47
2022/01/19 04:07:18;;;;;;;26.15;17.67;;;;;;;-1.51;56.23;95555.98;1660542;86;21001;-48
2022/01/19 04:09:46;;;;;;;29.37;19.87;;;;;;;-1.42;55.89;95561.95;1654677;86;21089;-48
2022/01/19 04:12:19;;;;;;;53.00;31.07;;;;;;;-1.29;55.77;95560.72;1667888;85;21160;-48
2022/01/19 04:14:43;;;;;;;47.95;27.48;;;;;;;-1.23;55.49;95568.75;1660805;83;21485;-47
2022/01/19 04:17:13;;;;;;;27.35;19.92;;;;;;;-1.12;55.55;95570.54;1662127;86;22482;-47
2022/01/19 04:19:45;;;;;;;44.33;25.57;;;;;;;-1.09;55.27;95562.31;1661800;84;21022;-47
2022/01/19 04:22:18;;;;;;;66.05;40.85;;;;;;;-0.98;55.11;95571.44;1660300;83;20969;-47
2022/01/19 04:24:46;;;;;;;;;;;;;;;-0.83;54.98;95567.87;1666740;85;21820;-47
2022/01/19 04:30:05;;;;;;;22.32;11.80;;;;;;;-0.98;55.03;95558.70;1637270;86;20977;-48
2022/01/19 04:33:11;;;;;;;25.82;17.12;;;;;;;-1.06;55.70;95557.55;1651329;86;21013;-47
2022/01/19 04:34:57;;;;;;;29.72;16.80;;;;;;;-1.18;56.19;95556.34;1614255;86;21612;-49
2022/01/19 04:37:38;;;;;;;29.37;17.37;;;;;;;-1.26;56.64;95560.01;1657903;86;21077;-47
2022/01/19 05:15:09;;;;;;;25.92;15.28;;;;;;;-1.33;57.36;95524.20;1652045;84;20224;-48
2022/01/19 05:17:36;;;;;;;22.17;13.95;;;;;;;-1.42;57.56;95523.62;1663587;85;21159;-48
2022/01/19 05:20:10;;;;;;;22.45;14.98;;;;;;;-1.39;57.74;95523.47;1659720;85;20978;-46
2022/01/19 05:22:37;;;;;;;21.23;12.88;;;;;;;-1.38;57.65;95518.30;1662396;85;21076;-48
2022/01/19 05:25:07;;;;;;;18.35;12.25;;;;;;;-1.35;57.50;95516.27;1631878;86;20994;-48
2022/01/19 05:27:51;;;;;;;23.60;13.10;;;;;;;-1.36;57.55;95518.75;1657563;85;21149;-47
2022/01/19 05:30:19;;;;;;;18.45;13.35;;;;;;;-1.32;57.60;95519.59;1649344;86;22019;-47
2022/01/19 05:32:47;;;;;;;21.20;13.30;;;;;;;-1.31;57.50;95519.81;1656037;86;21103;-47
2022/01/19 05:35:14;;;;;;;13.85;11.53;;;;;;;-1.36;57.42;95519.52;1654849;86;21029;-48
2022/01/19 05:37:58;;;;;;;14.95;11.73;;;;;;;-1.42;57.29;95525.53;1597418;88;21085;-48
2022/01/19 05:40:39;;;;;;;10.68;8.60;;;;;;;-1.47;57.05;95522.53;1614061;86;21021;-47
2022/01/19 05:43:06;;;;;;;18.55;11.33;;;;;;;-1.49;57.03;95510.55;1660356;85;21129;-47
2022/01/19 05:45:33;;;;;;;19.42;13.40;;;;;;;-1.52;56.99;95519.34;1656021;86;20965;-49
2022/01/19 05:48:02;;;;;;;37.83;19.50;;;;;;;-1.64;57.16;95522.15;1634877;86;20989;-51
2022/01/19 05:50:31;;;;;;;35.00;18.25;;;;;;;-1.78;57.44;95517.00;1636597;85;21069;-47
2022/01/19 05:53:02;;;;;;;38.60;19.67;;;;;;;-1.86;57.81;95509.86;1657906;85;21057;-48
2022/01/19 05:55:28;;;;;;;33.60;19.23;;;;;;;-1.88;58.02;95508.88;1657876;85;21833;-46
2022/01/19 05:57:56;;;;;;;25.20;15.72;;;;;;;-1.89;57.97;95510.02;1666969;85;20950;-47
2022/01/19 06:00:26;;;;;;;25.62;15.32;;;;;;;-1.89;57.95;95507.32;1641594;85;21052;-49
2022/01/19 06:02:52;;;;;;;26.07;14.83;;;;;;;-1.92;57.82;95503.19;1677104;82;20984;-48
2022/01/19 06:05:21;;;;;;;30.10;16.45;;;;;;;-1.93;57.72;95509.70;1690646;83;21099;-47
2022/01/19 06:10:44;;;;;;;47.35;27.62;;;;;;;-2.04;57.68;95509.45;1621065;85;21041;-48
2022/01/19 06:13:15;;;;;;;32.17;18.27;;;;;;;-2.07;57.89;95501.27;1629570;85;21111;-48
2022/01/19 06:15:42;;;;;;;32.88;19.10;;;;;;;-2.03;57.72;95511.57;1653835;84;21028;-48
2022/01/19 06:18:10;;;;;;;63.35;31.52;;;;;;;-2.12;57.61;95513.09;1676345;84;20973;-49
2022/01/19 06:20:38;;;;;;;63.75;32.78;;;;;;;-2.21;57.61;95511.16;1699104;83;21117;-48
2022/01/19 06:23:05;;;;;;;74.47;36.68;;;;;;;-2.32;57.66;95512.78;1695383;83;21110;-49
2022/01/19 06:25:33;;;;;;;69.75;35.80;;;;;;;-2.44;57.99;95525.00;1687945;83;21099;-48
2022/01/19 06:28:01;;;;;;;68.90;36.10;;;;;;;-2.40;58.46;95523.18;1670554;84;21091;-48
2022/01/19 06:30:30;;;;;;;81.65;40.73;;;;;;;-2.32;58.36;95520.87;1685355;83;21071;-48
2022/01/19 06:32:56;;;;;;;90.55;43.83;;;;;;;-2.23;58.25;95514.77;1698803;83;21772;-47
2022/01/19 06:35:23;;;;;;;96.60;47.15;;;;;;;-2.18;57.97;95510.45;1690511;83;20973;-48
2022/01/19 06:37:52;;;;;;;114.05;53.02;;;;;;;-2.22;58.02;95514.98;1680900;84;21131;-49
2022/01/19 06:40:26;;;;;;;154.65;69.10;;;;;;;-2.22;58.13;95513.63;1686455;83;21134;-48
2022/01/19 06:42:54;;;;;;;150.85;68.72;;;;;;;-2.23;58.10;95502.64;1674800;84;21077;-47
2022/01/19 06:45:22;;;;;;;141.50;66.45;;;;;;;-2.22;58.16;95494.77;1689155;84;21708;-47
2022/01/19 06:47:50;;;;;;;122.02;60.45;;;;;;;-2.14;58.12;95496.49;1686783;84;21052;-47
2022/01/19 06:50:19;;;;;;;132.85;63.83;;;;;;;-2.01;57.86;95501.22;1687510;83;21584;-50
2022/01/19 06:52:47;;;;;;;111.85;54.50;;;;;;;-1.97;57.44;95496.72;1662864;85;22272;-48
2022/01/19 06:55:17;;;;;;;106.95;52.62;;;;;;;-1.98;57.07;95488.42;1658635;84;21474;-47
2022/01/19 06:57:47;;;;;;;107.05;57.03;;;;;;;-1.95;56.97;95489.83;1711265;82;21534;-50
2022/01/19 07:00:32;;;;;;;131.57;64.87;;;;;;;-1.91;57.11;95481.83;1698567;83;21112;-48
2022/01/19 07:03:20;;;;;;;116.17;57.80;;;;;;;-1.76;56.95;95475.05;1703095;82;21021;-49
2022/01/19 07:05:50;;;;;;;124.78;61.68;;;;;;;-1.60;56.77;95470.41;1694567;83;21461;-50
2022/01/19 07:08:24;;;;;;;126.60;64.45;;;;;;;-1.46;56.41;95472.07;1688421;82;21071;-51
2022/01/19 07:10:51;;;;;;;113.97;55.73;;;;;;;-1.35;55.95;95477.14;1694577;83;21149;-48
2022/01/19 07:13:18;;;;;;;93.37;45.63;;;;;;;-1.29;55.60;95475.71;1697807;82;21014;-49
2022/01/19 07:15:50;;;;;;;88.10;47.03;;;;;;;-1.27;55.28;95474.78;1687517;83;21477;-48
2022/01/19 07:18:20;;;;;;;117.17;50.15;;;;;;;-1.31;54.99;95475.28;1678804;82;21064;-50
2022/01/19 07:20:46;;;;;;;122.87;54.73;;;;;;;-1.51;54.96;95465.61;1678376;83;21124;-48
2022/01/19 07:23:13;;;;;;;60.35;30.95;;;;;;;-1.69;55.42;95458.47;1661833;84;21147;-49
2022/01/19 07:25:40;;;;;;;113.97;49.80;;;;;;;-1.71;55.47;95454.58;1660655;85;21021;-47
2022/01/19 07:28:10;;;;;;;55.45;28.20;;;;;;;-1.59;55.55;95455.78;1653912;84;21538;-48
2022/01/19 07:30:36;;;;;;;25.75;15.30;;;;;;;-1.47;54.94;95447.58;1661551;84;21105;-49
2022/01/19 07:33:05;;;;;;;29.18;20.00;;;;;;;-1.31;54.88;95445.60;1662476;83;21054;-49
2022/01/19 07:35:34;;;;;;;82.30;37.70;;;;;;;-1.22;54.08;95440.20;1654698;84;21789;-49
2022/01/19 07:38:01;;;;;;;47.05;24.15;;;;;;;-1.16;54.17;95429.91;1633682;85;21539;-47
2022/01/19 07:40:29;;;;;;;37.70;20.32;;;;;;;-1.17;54.08;95427.00;1663252;84;21017;-47
2022/01/19 07:42:56;;;;;;;90.35;45.63;;;;;;;-1.17;53.81;95411.57;1645921;85;22060;-48
2022/01/19 07:45:26;;;;;;;19.07;13.28;;;;;;;-1.06;53.69;95414.47;1656665;84;21051;-48
2022/01/19 07:48:11;;;;;;;15.63;10.43;;;;;;;-0.90;53.28;95407.06;1629919;85;21108;-48
2022/01/19 07:50:38;;;;;;;25.55;13.98;;;;;;;-0.77;53.05;95411.17;1635226;85;21068;-47
2022/01/19 07:53:13;;;;;;;38.10;19.57;;;;;;;-0.65;52.92;95409.62;1603509;85;21068;-49
2022/01/19 07:55:42;;;;;;;78.50;35.30;;;;;;;-0.52;52.55;95394.80;1609946;86;21590;-48
2022/01/19 07:58:28;;;;;;;69.53;30.57;;;;;;;-0.51;52.26;95399.06;1640892;86;21065;-47
2022/01/19 08:01:16;;;;;;;24.18;16.02;;;;;;;-0.49;52.38;95397.58;1614492;86;22430;-50
2022/01/19 08:04:03;;;;;;;17.42;11.97;;;;;;;-0.41;51.90;95401.95;1656180;84;21161;-49
2022/01/19 08:06:30;;;;;;;30.00;17.50;;;;;;;-0.38;51.54;95397.75;1654545;84;21175;-47
2022/01/19 08:08:58;;;;;;;30.65;17.30;;;;;;;-0.38;51.93;95386.94;1646008;84;21032;-49
2022/01/19 08:11:25;;;;;;;30.35;19.82;;;;;;;-0.28;51.67;95380.91;1642065;85;21113;-54
2022/01/19 08:13:54;;;;;;;20.12;15.05;;;;;;;-0.06;51.10;95380.11;1654652;84;21904;-48
2022/01/19 08:16:21;;;;;;;39.78;21.23;;;;;;;0.12;50.75;95374.59;1633836;86;21541;-49
2022/01/19 08:18:53;;;;;;;35.85;21.65;;;;;;;0.18;49.89;95360.94;1678541;82;22256;-50
2022/01/19 08:21:20;;;;;;;22.00;13.58;;;;;;;0.21;49.88;95349.97;1688260;83;21060;-49
2022/01/19 08:23:49;;;;;;;29.37;19.62;;;;;;;0.20;49.77;95352.47;1694002;82;21488;-48
2022/01/19 08:26:16;;;;;;;32.65;18.55;;;;;;;0.19;50.13;95347.62;1675021;83;21111;-51
2022/01/19 08:28:45;;;;;;;33.53;21.55;;;;;;;0.33;49.87;95336.98;1675530;82;21009;-48
2022/01/19 08:31:13;;;;;;;17.32;13.58;;;;;;;0.56;49.92;95339.00;1649232;81;21073;-53
2022/01/19 08:33:58;;;;;;;23.40;15.72;;;;;;;0.71;49.68;95333.96;1696244;83;21088;-48
2022/01/19 08:36:28;;;;;;;19.00;12.82;;;;;;;0.83;49.16;95335.63;1686148;83;21019;-47
2022/01/19 08:39:05;;;;;;;15.18;10.23;;;;;;;1.00;49.14;95332.33;1677123;83;21171;-50
2022/01/19 08:41:33;;;;;;;12.73;9.40;;;;;;;1.13;48.28;95334.39;1686497;82;21759;-48
2022/01/19 08:44:02;;;;;;;16.15;11.45;;;;;;;1.22;48.28;95330.81;1697410;83;21033;-52
2022/01/19 08:46:29;;;;;;;23.87;14.43;;;;;;;1.33;48.35;95322.19;1660925;84;21242;-49
2022/01/19 08:49:08;;;;;;;20.70;12.50;;;;;;;1.45;47.44;95319.20;1663225;83;21028;-48
2022/01/19 08:51:45;;;;;;;15.93;11.48;;;;;;;1.61;47.00;95325.14;1604631;87;21159;-52
2022/01/19 08:54:17;;;;;;;14.80;11.30;;;;;;;1.79;46.69;95320.63;1646169;85;21578;-50
2022/01/19 08:56:48;;;;;;;21.90;13.68;;;;;;;1.84;46.24;95314.84;1632348;85;21533;-49
2022/01/19 08:59:14;;;;;;;15.30;10.78;;;;;;;1.84;46.23;95315.63;1634185;83;21066;-51
2022/01/19 09:01:41;;;;;;;12.05;8.33;;;;;;;1.89;46.29;95309.05;1687936;83;21489;-49
2022/01/19 09:04:08;;;;;;;11.55;7.30;;;;;;;1.95;46.03;95311.03;1677867;83;21997;-48
2022/01/19 09:06:35;;;;;;;23.65;15.98;;;;;;;2.01;45.61;95315.53;1651847;83;21496;-50
2022/01/19 09:09:03;;;;;;;13.18;10.10;;;;;;;2.20;45.50;95297.61;1671320;83;21033;-54
2022/01/19 09:11:30;;;;;;;11.15;8.50;;;;;;;2.51;44.92;95303.17;1678514;83;21057;-50
2022/01/19 09:14:01;;;;;;;12.95;10.08;;;;;;;2.90;44.05;95300.00;1674535;82;21596;-47
2022/01/19 09:16:30;;;;;;;10.98;8.53;;;;;;;3.13;43.38;95302.39;1677896;82;21053;-49
2022/01/19 09:18:57;;;;;;;12.58;7.95;;;;;;;3.37;42.98;95294.83;1683408;82;20972;-48
2022/01/19 09:21:24;;;;;;;12.90;8.05;;;;;;;3.54;42.50;95303.77;1664068;83;21040;-49
2022/01/19 09:23:51;;;;;;;12.37;8.30;;;;;;;3.71;41.69;95293.47;1655540;84;21016;-47
2022/01/19 09:26:19;;;;;;;10.72;7.30;;;;;;;3.88;42.01;95291.92;1683051;83;21095;-48
2022/01/19 09:28:49;;;;;;;9.18;7.40;;;;;;;4.00;41.23;95290.92;1634737;85;22388;-48
2022/01/19 09:31:20;;;;;;;10.03;7.47;;;;;;;4.37;40.94;95280.89;1661685;84;21037;-50
2022/01/19 09:33:54;;;;;;;12.70;8.68;;;;;;;4.80;40.13;95287.14;1698067;83;21018;-49
2022/01/19 09:36:30;;;;;;;11.33;8.60;;;;;;;5.25;39.74;95277.94;1685875;83;21002;-48
2022/01/19 09:38:47;;;;;;;8.95;7.58;;;;;;;5.49;38.36;95276.40;1685867;83;21120;-49
2022/01/19 09:41:13;;;;;;;9.50;7.10;;;;;;;5.55;38.59;95272.62;1685239;83;21159;-50
2022/01/19 09:43:43;;;;;;;10.93;8.08;;;;;;;5.48;38.05;95272.70;1632081;85;21054;-48
2022/01/19 09:46:10;;;;;;;12.20;8.05;;;;;;;5.11;38.62;95268.48;1629843;85;21046;-48
2022/01/19 09:48:38;;;;;;;11.95;8.45;;;;;;;4.85;39.19;95264.94;1655250;83;22219;-49
2022/01/19 09:51:04;;;;;;;11.97;9.10;;;;;;;4.80;39.36;95268.06;1680864;83;21041;-49
2022/01/19 09:53:31;;;;;;;10.85;8.70;;;;;;;4.75;39.57;95260.31;1685304;82;21729;-50
2022/01/19 09:55:58;;;;;;;10.63;7.80;;;;;;;4.71;39.53;95261.49;1686407;83;21519;-51
2022/01/19 09:58:25;;;;;;;9.88;7.83;;;;;;;4.80;39.23;95257.16;1686928;83;21027;-49
2022/01/19 10:00:53;;;;;;;13.43;8.98;;;;;;;4.93;39.20;95251.45;1664940;83;21408;-47
2022/01/19 10:03:27;;;;;;;85.40;48.35;;;;;;;5.09;38.84;95247.66;1656863;84;21149;-48
2022/01/19 10:06:16;;;;;;;41.65;28.10;;;;;;;5.21;38.61;95252.64;1666236;84;22599;-51
2022/01/19 10:08:54;;;;;;;56.83;36.98;;;;;;;5.38;38.63;95259.32;1614133;84;21301;-50
2022/01/19 10:17:09;;;;;;;23.77;17.40;;;;;;;4.98;38.87;95251.63;1678538;83;20981;-50
2022/01/19 10:19:51;;;;;;;20.30;14.47;;;;;;;4.87;39.02;95246.81;1674164;83;21128;-53
2022/01/19 10:22:25;;;;;;;20.48;13.95;;;;;;;4.91;39.25;95241.53;1681179;83;21148;-49
2022/01/19 10:24:57;;;;;;;18.00;14.00;;;;;;;4.92;39.26;95221.27;1666600;83;21176;-55
2022/01/19 10:27:47;;;;;;;14.18;11.45;;;;;;;4.93;39.60;95224.19;1685627;82;21006;-49
2022/01/19 10:30:25;;;;;;;18.95;12.85;;;;;;;5.11;39.38;95218.03;1677685;83;21139;-51
2022/01/19 10:32:55;;;;;;;18.30;13.60;;;;;;;5.37;39.18;95205.16;1688278;83;21185;-51
2022/01/19 10:35:32;;;;;;;15.13;10.85;;;;;;;5.52;38.64;95198.40;1688266;83;21021;-50
2022/01/19 10:38:18;;;;;;;16.35;10.90;;;;;;;5.50;38.47;95202.13;1689753;83;21477;-49
2022/01/19 10:41:03;;;;;;;16.45;11.30;;;;;;;5.59;38.92;95195.02;1684636;82;21541;-51
2022/01/19 10:43:44;;;;;;;11.68;9.45;;;;;;;5.97;38.20;95191.15;1691368;83;21496;-49
2022/01/19 10:46:31;;;;;;;9.48;7.08;;;;;;;6.26;37.51;95186.93;1691097;83;21143;-48
2022/01/19 10:49:05;;;;;;;12.33;7.92;;;;;;;6.42;36.70;95190.44;1699142;83;21483;-53
2022/01/19 10:51:44;;;;;;;9.08;6.87;;;;;;;6.30;37.07;95182.19;1696724;83;21184;-49
2022/01/19 10:54:20;;;;;;;8.70;7.37;;;;;;;6.22;37.04;95174.48;1694112;83;39240;-48
2022/01/19 10:56:58;;;;;;;8.25;7.00;;;;;;;6.44;36.97;95173.03;1652228;84;21867;-48
2022/01/19 10:59:27;;;;;;;9.60;6.35;;;;;;;6.80;36.63;95159.06;1649770;85;21120;-49
2022/01/19 11:01:58;;;;;;;10.70;8.78;;;;;;;7.07;36.19;95154.37;1632883;86;21125;-49
2022/01/19 11:04:37;;;;;;;9.80;7.78;;;;;;;7.14;36.44;95145.47;1643478;85;21105;-53
2022/01/19 11:07:15;;;;;;;10.23;7.03;;;;;;;7.30;36.41;95138.15;1679714;83;21086;-51
2022/01/19 11:09:57;;;;;;;10.15;7.60;;;;;;;7.45;35.97;95131.25;1655129;84;21146;-50
2022/01/19 11:12:16;;;;;;;14.20;8.78;;;;;;;7.57;36.50;95127.92;1680834;83;21187;-53
2022/01/19 11:14:46;;;;;;;11.97;8.30;;;;;;;7.90;35.83;95126.89;1647286;85;21118;-52
2022/01/19 11:17:13;;;;;;;10.85;7.60;;;;;;;8.09;35.33;95118.52;1678982;83;21987;-55
2022/01/19 11:19:43;;;;;;;11.35;7.97;;;;;;;7.91;35.53;95115.34;1685906;83;21047;-49
2022/01/19 11:22:38;;;;;;;10.85;7.45;;;;;;;7.92;35.83;95105.94;1653684;84;21105;-48
2022/01/19 11:25:31;;;;;;;10.85;6.97;;;;;;;8.16;35.34;95112.30;1688634;83;21157;-48
2022/01/19 11:27:58;;;;;;;10.05;7.15;;;;;;;8.36;34.89;95113.08;1690952;83;21480;-47
2022/01/19 11:30:31;;;;;;;9.80;7.37;;;;;;;8.60;35.37;95101.41;1671419;83;21018;-49
2022/01/19 11:33:27;;;;;;;9.08;7.22;;;;;;;8.96;34.96;95101.53;1683711;83;21049;-50
2022/01/19 11:36:02;;;;;;;9.38;6.58;;;;;;;8.93;34.64;95093.58;1688185;83;20919;-50
2022/01/19 11:38:51;;;;;;;7.75;6.20;;;;;;;8.85;34.83;95092.80;1706470;83;21781;-48
2022/01/19 11:41:36;;;;;;;7.83;6.03;;;;;;;9.04;34.55;95083.72;1637274;85;21068;-49
2022/01/19 11:44:03;;;;;;;8.55;5.92;;;;;;;9.36;34.29;95073.48;1689644;83;21072;-50
2022/01/19 11:46:39;;;;;;;7.45;5.62;;;;;;;9.85;33.69;95077.68;1699526;83;21050;-48
2022/01/19 11:49:09;;;;;;;6.50;5.80;;;;;;;10.42;33.24;95072.73;1629477;85;21096;-48
2022/01/19 11:51:45;;;;;;;8.30;6.40;;;;;;;10.77;32.26;95069.08;1651675;83;21146;-50
2022/01/19 11:54:21;;;;;;;8.30;6.22;;;;;;;11.06;31.63;95064.23;1629245;86;21692;-48
2022/01/19 11:57:08;;;;;;;7.45;5.25;;;;;;;11.51;31.08;95064.69;1603495;87;21580;-49
2022/01/19 11:59:56;;;;;;;7.12;5.47;;;;;;;11.93;30.37;95065.99;1646051;86;21166;-49
2022/01/19 12:02:35;;;;;;;6.45;5.03;;;;;;;12.39;29.81;95060.97;1682337;83;21590;-49
2022/01/19 12:05:08;;;;;;;9.90;6.92;;;;;;;12.85;29.34;95064.11;1705426;82;21220;-50
2022/01/19 12:07:43;;;;;;;9.23;5.60;;;;;;;12.78;29.10;95065.78;1688852;81;21163;-49
2022/01/19 12:10:15;;;;;;;7.87;5.78;;;;;;;12.87;29.31;95058.93;1668926;84;21001;-48
2022/01/19 12:12:57;;;;;;;11.95;7.12;;;;;;;13.08;28.95;95056.73;1644272;84;20947;-50
2022/01/19 12:15:57;;;;;;;6.17;4.33;;;;;;;13.37;28.57;95050.20;1622049;85;21080;-49
2022/01/19 12:18:42;;;;;;;5.50;4.75;;;;;;;13.72;27.83;95061.16;1664429;84;21442;-50
2022/01/19 12:21:12;;;;;;;10.08;6.42;;;;;;;13.94;27.79;95063.17;1670990;84;21109;-51
2022/01/19 12:23:39;;;;;;;9.53;6.42;;;;;;;14.31;27.81;95046.13;1634052;87;21106;-50
2022/01/19 12:26:07;;;;;;;15.72;11.78;;;;;;;14.74;27.18;95050.66;1621740;86;21178;-55
2022/01/19 12:28:47;;;;;;;12.65;10.53;;;;;;;15.01;26.56;95050.55;1659430;84;22168;-51
2022/01/19 12:31:34;;;;;;;7.85;6.72;;;;;;;15.00;26.33;95053.16;1698076;81;21673;-51
2022/01/19 12:34:15;;;;;;;8.05;4.55;;;;;;;15.02;26.15;95045.15;1692310;82;21029;-50
2022/01/19 12:36:55;;;;;;;8.60;6.45;;;;;;;15.12;26.25;95049.43;1687861;83;21059;-49
2022/01/19 12:39:30;;;;;;;12.78;9.23;;;;;;;15.27;25.96;95045.34;1697411;81;21155;-50
2022/01/19 12:42:17;;;;;;;8.23;5.45;;;;;;;15.09;26.13;95045.43;1697826;83;21214;-50
2022/01/19 12:44:51;;;;;;;9.93;6.25;;;;;;;14.73;26.21;95032.50;1688258;83;21908;-50
2022/01/19 12:47:33;;;;;;;7.55;5.15;;;;;;;14.44;26.79;95030.87;1682839;83;21059;-49
2022/01/19 12:50:12;;;;;;;9.23;6.13;;;;;;;14.05;27.52;95029.69;1693027;83;21075;-48
2022/01/19 12:52:53;;;;;;;5.70;4.53;;;;;;;14.05;27.52;95029.69;1695139;83;21899;-49
2022/01/19 12:55:27;;;;;;;7.20;6.03;;;;;;;13.93;27.35;95028.44;1681468;83;21068;-50
2022/01/19 12:57:55;;;;;;;7.40;5.72;;;;;;;13.84;27.46;95031.98;1624581;84;21167;-50
2022/01/19 13:00:26;;;;;;;10.72;7.95;;;;;;;13.75;27.56;95025.67;1677816;83;21257;-48
2022/01/19 13:02:53;;;;;;;10.63;7.47;;;;;;;13.60;27.72;95021.38;1678691;83;20998;-48
2022/01/19 13:05:22;;;;;;;9.20;7.03;;;;;;;13.29;28.11;95013.05;1666288;83;21037;-48
2022/01/19 13:07:55;;;;;;;14.60;9.43;;;;;;;13.19;28.35;95011.48;1694222;83;21531;-50